Terminal Aerodrome Forecast
Issued by NWS

Home | Current Version | Previous Version | Text Only | Print | Product List | Glossary On
Versions: 1 2 3 4 5 6 7 8 9 10 11 12 13 14
000
FTAK31 PAFA 241121
TAFAMC
TAF
PAMC 241121Z 2412/2512 00000KT P6SM -RA OVC050
     FM241500 17008G15KT 6SM -RA SCT015 OVC050
     FM241700 19011G19KT 4SM -RA BR BKN015 OVC035
     FM250000 22013G20KT P6SM -RA BKN050=

USA.gov is the U.S. government's official web portal to all federal, state and local government web resources and services.